Time;durP1;ratioP1;P1;durP2;ratioP2;P2;SDS_P1;SDS_P2;PMS_P1;PMS_P2;Temp;Humidity;BMP_temperature;BMP_pressure;BME280_temperature;BME280_humidity;BME280_pressure;Samples;Min_cycle;Max_cycle;Signal;HPM_P1;HPM_P2
2022/12/07 00:02:04;;;;;;;;;;;;;;;17.86;48.11;100966.38;4993454;28;906;-46
2022/12/07 00:04:30;;;;;;;;;;;;;;;18.10;47.48;100970.22;4997090;28;1906;-49
2022/12/07 00:06:55;;;;;;;;;;;;;;;17.30;47.90;100970.78;4996962;28;1200;-47
2022/12/07 00:09:21;;;;;;;;;;;;;;;17.53;48.30;100985.09;4996899;28;1070;-47
2022/12/07 00:11:47;;;;;;;;;;;;;;;17.54;48.11;100976.56;4997077;28;1108;-49
2022/12/07 00:14:14;;;;;;;;;;;;;;;17.12;47.48;100982.31;4996960;28;1180;-48
2022/12/07 00:16:40;;;;;;;;;;;;;;;16.80;47.25;100980.56;4996984;28;1196;-50
2022/12/07 00:19:05;;;;;;;;;;;;;;;17.29;48.36;100980.13;4996684;28;1113;-53
2022/12/07 00:21:31;;;;;;;;;;;;;;;17.18;48.15;100979.31;4996720;28;1208;-52
2022/12/07 00:23:57;;;;;;;;;;;;;;;18.87;45.91;100987.53;4996741;28;1910;-50
2022/12/07 00:26:23;;;;;;;;;;;;;;;17.56;48.03;100979.06;4995986;28;1862;-51
2022/12/07 00:28:50;;;;;;;;;;;;;;;17.17;47.52;100993.34;4996895;28;1165;-48
2022/12/07 00:31:16;;;;;;;;;;;;;;;16.95;46.70;100985.31;4997274;28;1085;-50
2022/12/07 00:33:42;;;;;;;;;;;;;;;16.73;46.31;100989.03;4996745;28;1128;-49
2022/12/07 00:36:08;;;;;;;;;;;;;;;16.86;46.67;100994.03;4996337;28;1105;-47
2022/12/07 00:38:34;;;;;;;;;;;;;;;17.14;47.68;100985.59;4996333;28;1224;-46
2022/12/07 00:41:00;;;;;;;;;;;;;;;16.76;48.22;100983.84;4996641;28;1116;-51
2022/12/07 00:43:26;;;;;;;;;;;;;;;18.45;46.78;100989.63;4996546;28;1161;-50
2022/12/07 00:45:51;;;;;;;;;;;;;;;17.24;48.23;100982.91;4979411;28;1914;-45
2022/12/07 00:48:17;;;;;;;;;;;;;;;17.20;48.31;100993.59;4996607;28;1136;-50
2022/12/07 00:50:42;;;;;;;;;;;;;;;17.61;48.15;100992.78;4988480;28;958;-51
2022/12/07 00:53:08;;;;;;;;;;;;;;;16.98;48.18;100985.59;4990502;28;1204;-48
2022/12/07 00:55:33;;;;;;;;;;;;;;;18.27;47.41;100988.31;4990625;28;1172;-52
2022/12/07 00:57:59;;;;;;;;;;;;;;;17.34;48.56;100980.16;4993776;28;2659;-51
2022/12/07 01:00:24;;;;;;;;;;;;;;;16.96;47.80;100970.47;4996308;28;1310;-50
2022/12/07 01:02:50;;;;;;;;;;;;;;;18.37;47.09;100980.06;4996288;28;1079;-50
2022/12/07 01:05:15;;;;;;;;;;;;;;;17.32;48.48;100973.28;4995826;28;1902;-44
2022/12/07 01:07:41;;;;;;;;;;;;;;;18.02;47.74;100959.78;4982799;28;1272;-45
2022/12/07 01:10:06;;;;;;;;;;;;;;;18.16;47.55;100959.19;4996374;28;1195;-46
2022/12/07 01:12:32;;;;;;;;;;;;;;;17.35;47.84;100962.56;4996332;28;1077;-48
2022/12/07 01:14:57;;;;;;;;;;;;;;;16.92;47.47;100953.72;4995069;28;903;-50
2022/12/07 01:17:22;;;;;;;;;;;;;;;16.91;47.27;100949.31;4996026;28;1196;-46
2022/12/07 01:19:48;;;;;;;;;;;;;;;17.42;48.04;100945.81;4997346;28;1207;-46
2022/12/07 01:22:13;;;;;;;;;;;;;;;17.04;48.00;100951.53;5000454;28;1231;-47
2022/12/07 01:24:39;;;;;;;;;;;;;;;18.77;46.52;100947.91;4999886;28;1910;-47
2022/12/07 01:27:04;;;;;;;;;;;;;;;17.56;48.18;100948.81;4999490;28;2310;-50
2022/12/07 01:29:30;;;;;;;;;;;;;;;17.08;47.69;100941.66;4999939;28;1148;-49
2022/12/07 01:31:55;;;;;;;;;;;;;;;16.77;47.32;100944.31;4999694;28;1172;-46
2022/12/07 01:34:20;;;;;;;;;;;;;;;17.77;47.65;100936.69;4999596;28;1236;-48
2022/12/07 01:36:46;;;;;;;;;;;;;;;17.02;48.16;100936.44;4982445;28;1113;-51
2022/12/07 01:39:11;;;;;;;;;;;;;;;16.82;47.22;100929.78;4999163;28;927;-52
2022/12/07 01:41:40;;;;;;;;;;;;;;;17.92;47.49;100926.78;4999595;28;1187;-50
2022/12/07 01:44:21;;;;;;;;;;;;;;;17.13;48.38;100929.03;4999513;28;1967;-51
2022/12/07 01:46:54;;;;;;;;;;;;;;;18.29;47.16;100926.38;4999615;28;1144;-51
2022/12/07 01:49:25;;;;;;;;;;;;;;;18.12;47.65;100915.72;4999299;28;1526;-47
2022/12/07 01:51:51;;;;;;;;;;;;;;;17.27;48.12;100916.38;4999293;28;1133;-51
2022/12/07 01:54:16;;;;;;;;;;;;;;;16.93;47.50;100916.91;4973412;28;1133;-50
2022/12/07 01:56:43;;;;;;;;;;;;;;;16.85;46.75;100917.41;4977128;28;2402;-50
2022/12/07 01:59:09;;;;;;;;;;;;;;;17.81;47.80;100914.13;4999542;28;1208;-48
2022/12/07 02:01:34;;;;;;;;;;;;;;;17.26;48.83;100912.81;4973378;28;1141;-51
2022/12/07 02:04:00;;;;;;;;;;;;;;;19.04;46.19;100907.25;4999395;28;1906;-52
2022/12/07 02:06:25;;;;;;;;;;;;;;;18.35;47.31;100909.84;4982245;28;1137;-51
2022/12/07 02:08:50;;;;;;;;;;;;;;;17.61;47.50;100893.81;4999011;28;1200;-51
2022/12/07 02:11:16;;;;;;;;;;;;;;;17.21;47.13;100914.75;4998908;28;1140;-52
2022/12/07 02:13:42;;;;;;;;;;;;;;;17.36;47.63;100912.00;4998653;28;1073;-50
2022/12/07 02:16:07;;;;;;;;;;;;;;;17.63;48.50;100910.88;4999011;28;1223;-52
2022/12/07 02:18:39;;;;;;;;;;;;;;;17.20;47.76;100910.34;4999421;28;1231;-48
2022/12/07 02:21:04;;;;;;;;;;;;;;;16.96;47.13;100905.38;4998998;28;1104;-51
2022/12/07 02:23:30;;;;;;;;;;;;;;;17.50;48.27;100904.00;4999072;28;1113;-52
2022/12/07 02:26:01;;;;;;;;;;;;;;;17.08;47.44;100908.69;4995302;28;2357;-51
2022/12/07 02:28:45;;;;;;;;;;;;;;;17.77;47.75;100902.88;4998719;28;1117;-48
2022/12/07 02:31:12;;;;;;;;;;;;;;;17.33;48.28;100909.78;4998079;28;1121;-50
2022/12/07 02:33:43;;;;;;;;;;;;;;;17.40;48.29;100913.09;4981312;28;1232;-52
2022/12/07 02:36:27;;;;;;;;;;;;;;;18.12;47.60;100910.22;4980969;28;1549;-50
2022/12/07 02:38:55;;;;;;;;;;;;;;;17.22;47.97;100910.88;4991982;28;891;-50
2022/12/07 02:41:22;;;;;;;;;;;;;;;16.99;47.12;100907.56;4998231;28;1105;-51
2022/12/07 02:43:49;;;;;;;;;;;;;;;18.18;47.36;100907.44;4998480;28;1132;-48
2022/12/07 02:46:16;;;;;;;;;;;;;;;17.27;48.27;100910.88;4998279;28;1971;-51
2022/12/07 02:48:41;;;;;;;;;;;;;;;17.95;48.04;100918.81;4976020;28;1145;-51
2022/12/07 02:51:06;;;;;;;;;;;;;;;17.83;47.91;100900.94;4975059;28;913;-53
2022/12/07 02:53:36;;;;;;;;;;;;;;;17.22;47.88;100908.13;4998111;28;1208;-50
2022/12/07 02:56:03;;;;;;;;;;;;;;;17.46;48.24;100902.91;4998610;28;2291;-50
2022/12/07 02:58:28;;;;;;;;;;;;;;;17.31;48.44;100903.75;4984598;28;1204;-52
2022/12/07 03:01:16;;;;;;;;;;;;;;;17.04;47.57;100896.59;4990831;28;1136;-50
2022/12/07 03:03:42;;;;;;;;;;;;;;;16.82;46.80;100893.25;4996181;28;1026;-49
2022/12/07 03:06:10;;;;;;;;;;;;;;;18.07;47.17;100890.16;4980391;28;1914;-50
2022/12/07 03:08:44;;;;;;;;;;;;;;;17.14;48.14;100894.94;4998183;28;1148;-46
2022/12/07 03:11:10;;;;;;;;;;;;;;;17.24;48.25;100889.47;4997629;28;1117;-48
2022/12/07 03:13:41;;;;;;;;;;;;;;;17.33;48.17;100876.78;4998046;28;1125;-48
2022/12/07 03:16:14;;;;;;;;;;;;;;;16.92;47.68;100893.28;4985525;28;1144;-49
2022/12/07 03:18:58;;;;;;;;;;;;;;;17.14;47.89;100889.44;4980651;28;1153;-46
2022/12/07 03:21:24;;;;;;;;;;;;;;;17.69;47.88;100896.00;4978060;28;1486;-49
2022/12/07 03:23:52;;;;;;;;;;;;;;;17.06;48.06;100899.88;4992574;28;1086;-49
2022/12/07 03:26:17;;;;;;;;;;;;;;;18.78;46.39;100888.13;4980132;28;2227;-51
2022/12/07 03:28:44;;;;;;;;;;;;;;;17.74;47.88;100890.50;4975280;28;1152;-51
2022/12/07 03:31:17;;;;;;;;;;;;;;;17.19;47.73;100892.19;4978571;28;1142;-46
2022/12/07 03:33:45;;;;;;;;;;;;;;;17.64;48.33;100884.19;4980333;28;1267;-47
2022/12/07 03:36:14;;;;;;;;;;;;;;;17.29;48.20;100883.94;4983408;28;1117;-47
2022/12/07 03:38:44;;;;;;;;;;;;;;;17.81;48.32;100883.88;4979968;28;875;-52
2022/12/07 03:41:30;;;;;;;;;;;;;;;18.32;47.31;100883.72;4980377;28;1192;-47
2022/12/07 03:43:55;;;;;;;;;;;;;;;17.31;47.90;100881.75;4984964;28;1577;-43
2022/12/07 03:46:35;;;;;;;;;;;;;;;16.99;47.20;100888.34;4997182;28;1982;-45
2022/12/07 03:49:01;;;;;;;;;;;;;;;17.50;48.30;100881.19;4985869;28;1063;-46
2022/12/07 03:51:46;;;;;;;;;;;;;;;17.02;47.94;100890.53;4997000;28;1232;-47
2022/12/07 03:54:21;;;;;;;;;;;;;;;16.89;46.91;100894.66;4986390;28;1596;-46
2022/12/07 03:56:46;;;;;;;;;;;;;;;18.06;47.36;100892.09;4997132;28;2441;-44
2022/12/07 03:59:12;;;;;;;;;;;;;;;17.15;48.55;100889.16;4997325;28;1203;-47
2022/12/07 04:01:38;;;;;;;;;;;;;;;16.95;47.46;100891.91;4979590;28;1176;-48
2022/12/07 04:04:03;;;;;;;;;;;;;;;16.76;46.77;100892.41;4996567;28;1906;-50
2022/12/07 04:06:29;;;;;;;;;;;;;;;17.36;47.66;100892.75;4997229;28;1117;-49
2022/12/07 04:08:54;;;;;;;;;;;;;;;17.15;48.16;100885.59;4997178;28;1251;-49
2022/12/07 04:11:20;;;;;;;;;;;;;;;16.84;47.46;100885.56;4997812;28;1147;-44
2022/12/07 04:16:29;;;;;;;;;;;;;;;17.34;47.75;100883.94;4986139;28;1003;-48
2022/12/07 04:18:54;;;;;;;;;;;;;;;16.63;48.17;100876.47;4986876;28;1498;-50
2022/12/07 04:21:20;;;;;;;;;;;;;;;18.46;46.81;100867.41;4996869;28;1101;-46
2022/12/07 04:23:45;;;;;;;;;;;;;;;17.68;48.20;100868.78;4996668;28;1089;-47
2022/12/07 04:26:11;;;;;;;;;;;;;;;17.13;47.69;100869.41;4986313;28;2347;-48
2022/12/07 04:28:36;;;;;;;;;;;;;;;16.80;47.27;100865.22;4996576;28;1374;-46
2022/12/07 04:31:02;;;;;;;;;;;;;;;17.28;48.02;100855.66;4985735;28;1235;-50
2022/12/07 04:33:27;;;;;;;;;;;;;;;17.27;48.51;100859.47;4993972;28;1050;-51
2022/12/07 04:35:53;;;;;;;;;;;;;;;16.82;48.04;100872.09;4996771;28;1188;-46
2022/12/07 04:38:18;;;;;;;;;;;;;;;18.43;46.97;100870.72;4996460;28;1240;-49
2022/12/07 04:40:43;;;;;;;;;;;;;;;17.21;48.48;100863.34;4997152;28;1156;-48
2022/12/07 04:43:09;;;;;;;;;;;;;;;16.93;47.57;100875.72;4996501;28;1128;-47
2022/12/07 04:45:34;;;;;;;;;;;;;;;17.95;47.73;100882.22;4996262;28;1969;-52
2022/12/07 04:48:00;;;;;;;;;;;;;;;17.18;47.92;100872.16;4996675;28;1065;-48
2022/12/07 04:50:25;;;;;;;;;;;;;;;18.42;47.05;100878.13;4996465;28;1089;-50
2022/12/07 04:52:50;;;;;;;;;;;;;;;18.05;47.83;100879.41;4996231;28;1136;-50
2022/12/07 04:55:16;;;;;;;;;;;;;;;17.35;47.74;100877.34;4986739;28;1149;-52
2022/12/07 04:57:41;;;;;;;;;;;;;;;17.44;48.50;100867.44;5000267;28;2692;-50
2022/12/07 05:00:07;;;;;;;;;;;;;;;17.23;48.65;100865.81;4995244;28;1495;-44
2022/12/07 05:02:33;;;;;;;;;;;;;;;18.86;46.39;100873.75;4994287;28;1152;-49
2022/12/07 05:04:58;;;;;;;;;;;;;;;19.26;45.71;100882.00;4999484;28;1914;-50
2022/12/07 05:07:23;;;;;;;;;;;;;;;17.91;47.84;100875.63;4998985;28;1274;-52
2022/12/07 05:09:49;;;;;;;;;;;;;;;17.43;47.61;100876.81;4997102;28;1010;-47
2022/12/07 05:12:14;;;;;;;;;;;;;;;17.20;46.85;100877.38;4995193;28;1199;-49
2022/12/07 05:14:40;;;;;;;;;;;;;;;16.91;46.86;100881.50;4998117;28;1153;-48
2022/12/07 05:17:05;;;;;;;;;;;;;;;16.95;45.96;100889.97;5000153;28;1156;-48
2022/12/07 05:19:30;;;;;;;;;;;;;;;16.85;46.19;100887.22;4982424;28;1018;-49
2022/12/07 05:21:56;;;;;;;;;;;;;;;17.09;47.84;100898.50;5000261;28;1208;-45
2022/12/07 05:24:21;;;;;;;;;;;;;;;16.76;47.32;100895.97;4999634;28;1989;-49
2022/12/07 05:26:47;;;;;;;;;;;;;;;17.20;47.72;100888.34;4999880;28;2605;-50
2022/12/07 05:29:13;;;;;;;;;;;;;;;17.03;47.95;100894.13;4999763;28;1538;-50
2022/12/07 05:31:38;;;;;;;;;;;;;;;16.73;47.38;100890.19;4999848;28;1089;-50
2022/12/07 05:34:04;;;;;;;;;;;;;;;17.54;47.68;100882.28;5000021;28;1077;-50
2022/12/07 05:36:31;;;;;;;;;;;;;;;16.80;48.23;100889.94;4998910;28;1130;-49
2022/12/07 05:38:57;;;;;;;;;;;;;;;16.61;47.23;100890.47;4999113;28;1125;-46
2022/12/07 05:44:06;;;;;;;;;;;;;;;16.71;48.18;100882.22;4999676;28;1969;-50
2022/12/07 05:46:32;;;;;;;;;;;;;;;16.46;47.74;100890.41;4998529;28;1149;-47
2022/12/07 05:48:57;;;;;;;;;;;;;;;16.39;46.96;100885.19;4999640;28;1248;-46
2022/12/07 05:51:22;;;;;;;;;;;;;;;16.47;46.55;100886.59;4999438;28;1116;-45
2022/12/07 05:53:48;;;;;;;;;;;;;;;16.81;47.63;100880.59;4999334;28;1117;-47
2022/12/07 05:56:13;;;;;;;;;;;;;;;17.25;48.06;100880.94;4994317;28;2336;-47
2022/12/07 06:01:23;;;;;;;;;;;;;;;17.13;48.98;100885.06;4988196;28;1050;-48
2022/12/07 06:03:48;;;;;;;;;;;;;;;16.85;48.23;100877.03;4999038;28;1128;-48
2022/12/07 06:06:13;;;;;;;;;;;;;;;18.04;48.34;100891.53;4999080;28;1917;-48
2022/12/07 06:08:39;;;;;;;;;;;;;;;17.13;49.05;100883.13;4998341;28;1234;-50
2022/12/07 06:13:48;;;;;;;;;;;;;;;16.48;47.42;100882.72;4999310;28;1041;-49
2022/12/07 06:16:14;;;;;;;;;;;;;;;16.41;46.80;100883.81;4998903;28;1141;-46
2022/12/07 06:18:39;;;;;;;;;;;;;;;16.53;47.69;100894.53;4989929;28;1144;-50
2022/12/07 06:21:05;;;;;;;;;;;;;;;17.00;48.67;100887.25;4998592;28;1233;-49
2022/12/07 06:23:30;;;;;;;;;;;;;;;16.63;48.01;100885.50;4998651;28;1117;-45
2022/12/07 06:25:55;;;;;;;;;;;;;;;17.39;48.29;100881.19;4992017;28;2456;-51
2022/12/07 06:28:21;;;;;;;;;;;;;;;17.13;48.50;100896.06;4998647;28;1216;-50
2022/12/07 06:30:46;;;;;;;;;;;;;;;17.06;49.11;100888.91;4998757;28;1223;-48
2022/12/07 06:33:12;;;;;;;;;;;;;;;16.67;49.93;100891.28;4998493;28;1137;-48
2022/12/07 06:35:37;;;;;;;;;;;;;;;16.48;50.23;100893.69;4997956;28;1122;-52
2022/12/07 06:38:03;;;;;;;;;;;;;;;16.21;50.99;100889.22;4998773;28;1129;-49
2022/12/07 06:40:28;;;;;;;;;;;;;;;16.14;51.15;100894.13;4998386;28;883;-48
2022/12/07 06:42:54;;;;;;;;;;;;;;;15.96;51.48;100892.69;4998548;28;1231;-54
2022/12/07 06:45:19;;;;;;;;;;;;;;;15.82;51.63;100897.81;4998591;28;1906;-48
2022/12/07 06:47:44;;;;;;;;;;;;;;;15.74;51.89;100890.91;4997958;28;1137;-46
2022/12/07 06:50:10;;;;;;;;;;;;;;;15.62;52.34;100890.25;4992122;28;1296;-45
2022/12/07 06:52:35;;;;;;;;;;;;;;;15.51;52.37;100894.84;4997593;28;1288;-49
2022/12/07 06:55:01;;;;;;;;;;;;;;;16.63;49.82;100890.19;4997904;28;1121;-49
2022/12/07 06:57:26;;;;;;;;;;;;;;;16.63;49.62;100893.75;4998193;28;2489;-51
2022/12/07 06:59:52;;;;;;;;;;;;;;;16.10;51.18;100895.75;4997850;28;1145;-46
2022/12/07 07:02:17;;;;;;;;;;;;;;;15.80;51.99;100902.75;4997399;28;1229;-47
2022/12/07 07:04:43;;;;;;;;;;;;;;;15.65;52.18;100893.28;4990529;28;1973;-47
2022/12/07 07:07:08;;;;;;;;;;;;;;;15.88;51.90;100896.75;4991793;28;1090;-50
2022/12/07 07:09:34;;;;;;;;;;;;;;;17.05;48.73;100903.72;4998112;28;1235;-48
2022/12/07 07:11:59;;;;;;;;;;;;;;;16.17;50.99;100899.09;4998303;28;1199;-46
2022/12/07 07:14:24;;;;;;;;;;;;;;;15.89;51.61;100898.38;4997946;28;1140;-47
2022/12/07 07:16:50;;;;;;;;;;;;;;;15.68;52.06;100902.91;4997047;28;899;-45
2022/12/07 07:19:15;;;;;;;;;;;;;;;16.96;49.00;100904.53;4997883;28;1093;-46
2022/12/07 07:21:41;;;;;;;;;;;;;;;16.49;49.83;100906.34;4998024;28;1085;-47
2022/12/07 07:24:06;;;;;;;;;;;;;;;16.07;51.06;100905.34;4997059;28;1213;-48
2022/12/07 07:26:32;;;;;;;;;;;;;;;15.78;51.98;100902.13;4997281;28;1918;-45
2022/12/07 07:28:57;;;;;;;;;;;;;;;15.64;52.07;100897.13;4997029;28;1208;-47
2022/12/07 07:31:22;;;;;;;;;;;;;;;17.04;48.91;100904.84;4997717;28;1136;-48
2022/12/07 07:33:48;;;;;;;;;;;;;;;16.70;49.30;100907.22;4997982;28;1156;-49
2022/12/07 07:36:13;;;;;;;;;;;;;;;16.20;50.68;100898.53;4997438;28;1102;-44
2022/12/07 07:38:39;;;;;;;;;;;;;;;16.04;51.06;100901.22;4998013;28;1172;-44
2022/12/07 07:41:04;;;;;;;;;;;;;;;15.90;51.69;100894.56;4997532;28;1113;-46
2022/12/07 07:43:30;;;;;;;;;;;;;;;17.40;47.75;100901.25;4997830;28;1235;-46
2022/12/07 07:45:55;;;;;;;;;;;;;;;16.57;49.74;100900.31;4997230;28;1993;-49
2022/12/07 07:48:22;;;;;;;;;;;;;;;16.18;50.72;100907.03;4995376;28;1109;-46
2022/12/07 07:50:48;;;;;;;;;;;;;;;15.96;51.23;100909.94;4986284;28;1113;-46
2022/12/07 07:53:13;;;;;;;;;;;;;;;16.28;50.93;100911.75;4996338;28;1241;-46
2022/12/07 07:55:39;;;;;;;;;;;;;;;17.07;48.58;100908.97;4997387;28;1256;-48
2022/12/07 07:58:04;;;;;;;;;;;;;;;16.29;50.79;100913.41;4995008;28;1740;-48
2022/12/07 08:00:29;;;;;;;;;;;;;;;15.98;51.46;100906.97;4994166;28;1157;-47
2022/12/07 08:02:55;;;;;;;;;;;;;;;15.74;51.88;100913.66;4986229;28;1109;-48
2022/12/07 08:05:20;;;;;;;;;;;;;;;16.05;51.45;100916.59;4997055;28;1902;-47
2022/12/07 08:07:46;;;;;;;;;;;;;;;17.29;48.25;100916.91;4995524;28;1290;-48
2022/12/07 08:10:12;;;;;;;;;;;;;;;16.34;50.32;100913.44;4995723;28;1082;-46
2022/12/07 08:13:10;;;;;;;;;;;;;;;15.98;51.59;100915.19;4995663;28;1324;-44
2022/12/07 08:15:24;;;;;;;;;;;;;;;16.08;51.26;100907.81;4996366;28;1332;-48
2022/12/07 08:17:49;;;;;;;;;;;;;;;17.23;48.27;100913.34;4996869;28;885;-46
2022/12/07 08:20:14;;;;;;;;;;;;;;;16.31;50.52;100911.19;4996842;28;1195;-49
2022/12/07 08:22:40;;;;;;;;;;;;;;;15.98;51.35;100918.75;4996942;28;1188;-48
2022/12/07 08:25:05;;;;;;;;;;;;;;;15.81;51.81;100907.13;4983320;28;1975;-46
2022/12/07 08:27:31;;;;;;;;;;;;;;;15.90;51.94;100906.34;4996773;28;2615;-46
2022/12/07 08:29:56;;;;;;;;;;;;;;;17.30;48.25;100910.34;4996366;28;894;-49
2022/12/07 08:32:22;;;;;;;;;;;;;;;16.36;50.58;100904.94;4996210;28;1172;-47
2022/12/07 08:34:47;;;;;;;;;;;;;;;15.99;51.47;100903.94;4996577;28;1202;-48
2022/12/07 08:37:13;;;;;;;;;;;;;;;15.81;52.05;100901.63;4996767;28;1211;-45
2022/12/07 08:39:38;;;;;;;;;;;;;;;16.21;51.05;100906.50;4996088;28;1112;-45
2022/12/07 08:42:04;;;;;;;;;;;;;;;17.35;47.75;100907.59;4992088;28;991;-48
2022/12/07 08:44:29;;;;;;;;;;;;;;;17.39;48.06;100902.34;4992442;28;2072;-46
2022/12/07 08:46:56;;;;;;;;;;;;;;;18.15;46.81;100899.75;4996774;28;2474;-49
2022/12/07 08:49:26;;;;;;;;;;;;;;;16.90;49.52;100896.31;4994197;28;2215;-51
2022/12/07 08:51:52;;;;;;;;;;;;;;;16.38;49.25;100889.84;4977079;28;2074;-48
2022/12/07 08:54:17;;;;;;;;;;;;;;;16.03;48.89;100891.34;4977391;28;2064;-45
2022/12/07 08:56:43;;;;;;;;;;;;;;;16.70;49.41;100893.50;4978946;28;2107;-48
2022/12/07 08:59:08;;;;;;;;;;;;;;;16.23;49.88;100882.38;4978998;28;1859;-43
2022/12/07 09:01:34;;;;;;;;;;;;;;;16.04;48.73;100879.28;4996613;28;1157;-43
2022/12/07 09:03:59;;;;;;;;;;;;;;;16.83;49.27;100884.75;4988467;28;1181;-48
2022/12/07 09:06:25;;;;;;;;;;;;;;;16.08;49.50;100885.06;4996353;28;1977;-47
2022/12/07 09:08:51;;;;;;;;;;;;;;;16.14;49.12;100878.50;4978887;28;1209;-48
2022/12/07 09:11:17;;;;;;;;;;;;;;;16.68;49.58;100882.78;4996077;28;1240;-43
2022/12/07 09:13:42;;;;;;;;;;;;;;;16.22;49.61;100877.16;4995592;28;1141;-49
2022/12/07 09:16:07;;;;;;;;;;;;;;;17.76;47.88;100871.78;4992447;28;2076;-42
2022/12/07 09:18:33;;;;;;;;;;;;;;;18.59;46.19;100860.44;4990869;28;2494;-44
2022/12/07 09:20:59;;;;;;;;;;;;;;;17.13;48.79;100865.84;4995671;28;2152;-41
2022/12/07 09:23:24;;;;;;;;;;;;;;;16.71;48.65;100860.25;4993551;28;1958;-44
2022/12/07 09:25:50;;;;;;;;;;;;;;;16.49;48.01;100873.41;4996059;28;1915;-43
2022/12/07 09:28:15;;;;;;;;;;;;;;;16.37;47.46;100859.94;4995237;28;1843;-46
2022/12/07 09:30:47;;;;;;;;;;;;;;;16.99;48.83;100855.38;4994569;28;2168;-50
2022/12/07 09:33:12;;;;;;;;;;;;;;;16.56;48.89;100846.50;4994833;28;2073;-44
2022/12/07 09:35:38;;;;;;;;;;;;;;;17.24;48.83;100856.47;4996197;28;1153;-44
2022/12/07 09:38:03;;;;;;;;;;;;;;;17.52;48.67;100851.50;4987742;28;1131;-44
2022/12/07 09:40:29;;;;;;;;;;;;;;;16.79;48.93;100844.34;4996755;28;1120;-47
2022/12/07 09:42:54;;;;;;;;;;;;;;;16.41;48.57;100837.16;4999398;28;863;-44
2022/12/07 09:45:49;;;;;;;;;;;;;;;16.29;47.73;100836.56;4999800;28;1911;-46
2022/12/07 09:48:18;;;;;;;;;;;;;;;16.06;47.31;100844.19;4986540;28;1193;-45
2022/12/07 09:50:44;;;;;;;;;;;;;;;17.41;48.25;100836.94;4982548;28;1118;-50
2022/12/07 09:53:36;;;;;;;;;;;;;;;16.56;49.08;100832.78;4999171;28;1077;-45
2022/12/07 09:56:01;;;;;;;;;;;;;;;16.35;48.51;100840.97;4992547;28;1529;-46
2022/12/07 09:58:27;;;;;;;;;;;;;;;16.66;49.17;100829.22;4981545;28;1178;-44
2022/12/07 10:01:19;;;;;;;;;;;;;;;16.18;48.87;100826.66;4982197;28;1030;-44
2022/12/07 10:03:49;;;;;;;;;;;;;;;17.65;48.23;100826.16;4995490;28;1159;-41
2022/12/07 10:06:14;;;;;;;;;;;;;;;16.62;49.48;100830.88;4999020;28;1984;-43
2022/12/07 10:08:41;;;;;;;;;;;;;;;16.37;48.52;100824.25;4999549;28;1136;-48
2022/12/07 10:11:10;;;;;;;;;;;;;;;16.82;49.27;100813.63;4999250;28;1141;-48
2022/12/07 10:13:39;;;;;;;;;;;;;;;16.46;49.37;100813.56;4999430;28;986;-47
2022/12/07 10:16:05;;;;;;;;;;;;;;;16.13;48.94;100815.66;4999300;28;1195;-43
2022/12/07 10:18:37;;;;;;;;;;;;;;;17.02;48.86;100807.31;4981614;28;1153;-47
2022/12/07 10:21:16;;;;;;;;;;;;;;;16.37;49.38;100805.06;4999160;28;1196;-44
2022/12/07 10:24:01;;;;;;;;;;;;;;;18.19;47.42;100805.34;4994032;28;1144;-50
2022/12/07 10:26:45;;;;;;;;;;;;;;;17.47;48.79;100804.75;4997750;28;1910;-45
2022/12/07 10:29:28;;;;;;;;;;;;;;;16.81;48.74;100798.22;4998481;28;1160;-44
2022/12/07 10:32:04;;;;;;;;;;;;;;;16.55;48.18;100795.44;4986966;28;2441;-46
2022/12/07 10:34:30;;;;;;;;;;;;;;;17.00;48.65;100788.34;4998689;28;1196;-49
2022/12/07 10:37:17;;;;;;;;;;;;;;;16.74;48.97;100782.81;4998898;28;1069;-43
2022/12/07 10:39:46;;;;;;;;;;;;;;;16.31;48.23;100786.91;4998721;28;1124;-46
2022/12/07 10:42:23;;;;;;;;;;;;;;;17.08;48.50;100782.31;4998446;28;890;-47
2022/12/07 10:44:49;;;;;;;;;;;;;;;16.46;49.05;100783.38;4984949;28;1915;-52
2022/12/07 10:47:33;;;;;;;;;;;;;;;16.52;49.24;100782.28;4998498;28;1124;-50
2022/12/07 10:50:11;;;;;;;;;;;;;;;16.79;49.02;100772.94;4998573;28;1089;-44
2022/12/07 10:52:46;;;;;;;;;;;;;;;16.35;48.63;100782.53;4981301;28;1061;-46
2022/12/07 10:55:23;;;;;;;;;;;;;;;17.13;48.64;100780.66;4997355;28;1125;-48
2022/12/07 10:58:07;;;;;;;;;;;;;;;16.38;48.96;100782.81;4987615;28;1211;-52
2022/12/07 11:00:37;;;;;;;;;;;;;;;17.41;48.75;100776.47;4997548;28;1050;-49
2022/12/07 11:03:21;;;;;;;;;;;;;;;16.74;49.32;100766.34;4980913;28;2657;-48
2022/12/07 11:05:47;;;;;;;;;;;;;;;16.43;48.49;100774.56;4985427;28;1926;-46
2022/12/07 11:08:32;;;;;;;;;;;;;;;16.36;48.04;100765.78;4998296;28;1001;-45
2022/12/07 11:11:00;;;;;;;;;;;;;;;16.86;48.84;100762.53;4985903;28;1113;-44
2022/12/07 11:13:32;;;;;;;;;;;;;;;16.42;48.91;100759.22;4998254;28;1101;-45
2022/12/07 11:15:57;;;;;;;;;;;;;;;16.74;48.76;100749.88;4984760;28;1204;-44
2022/12/07 11:18:42;;;;;;;;;;;;;;;16.74;48.82;100747.13;4997064;28;1311;-44
2022/12/07 11:21:09;;;;;;;;;;;;;;;16.30;48.47;100736.69;4967288;28;1149;-48
2022/12/07 11:23:37;;;;;;;;;;;;;;;16.17;47.60;100737.22;4980312;28;1093;-51
2022/12/07 11:26:03;;;;;;;;;;;;;;;16.19;48.00;100740.53;4996560;28;1983;-47
2022/12/07 11:28:47;;;;;;;;;;;;;;;16.58;48.65;100734.53;4985361;28;1168;-48
2022/12/07 11:31:19;;;;;;;;;;;;;;;16.06;48.87;100734.47;4997459;28;2386;-49
2022/12/07 11:33:44;;;;;;;;;;;;;;;17.49;47.63;100731.06;4997876;28;1160;-45
2022/12/07 11:36:16;;;;;;;;;;;;;;;16.49;49.28;100725.19;4997599;28;1046;-46
2022/12/07 11:38:47;;;;;;;;;;;;;;;17.18;48.58;100728.41;4997985;28;1180;-46
2022/12/07 11:41:12;;;;;;;;;;;;;;;17.16;48.56;100723.22;4979119;28;1331;-46
2022/12/07 11:43:42;;;;;;;;;;;;;;;16.74;49.71;100724.34;4975138;28;947;-44
2022/12/07 11:46:08;;;;;;;;;;;;;;;18.33;47.19;100733.97;4978134;28;1907;-47
2022/12/07 11:48:45;;;;;;;;;;;;;;;17.00;49.32;100721.59;4979938;28;1137;-46
2022/12/07 11:51:11;;;;;;;;;;;;;;;16.64;48.71;100722.44;4980300;28;1097;-46
2022/12/07 11:53:46;;;;;;;;;;;;;;;16.47;47.81;100717.22;4997033;28;1101;-46
2022/12/07 11:56:12;;;;;;;;;;;;;;;16.24;47.42;100721.31;4997576;28;1167;-50
2022/12/07 11:58:40;;;;;;;;;;;;;;;16.82;48.75;100718.31;4992552;28;1325;-48
2022/12/07 12:01:06;;;;;;;;;;;;;;;16.35;48.84;100717.47;4996743;28;1137;-47
2022/12/07 12:03:33;;;;;;;;;;;;;;;17.75;48.38;100718.03;4979907;28;2701;-46
2022/12/07 12:05:58;;;;;;;;;;;;;;;16.94;49.60;100718.03;4984718;28;1910;-49
2022/12/07 12:08:27;;;;;;;;;;;;;;;16.62;48.94;100718.31;4996511;28;1137;-48
2022/12/07 12:11:00;;;;;;;;;;;;;;;16.88;48.98;100719.13;4996963;28;1180;-47
2022/12/07 12:13:37;;;;;;;;;;;;;;;16.81;49.34;100705.66;4979678;28;1181;-46
2022/12/07 12:16:41;;;;;;;;;;;;;;;16.90;49.16;100711.44;4991185;28;1272;-50
2022/12/07 12:19:07;;;;;;;;;;;;;;;17.38;49.02;100709.13;4936420;29;1420;-45
2022/12/07 12:21:32;;;;;;;;;;;;;;;16.72;49.22;100702.66;4936427;29;1157;-50
2022/12/07 12:24:03;;;;;;;;;;;;;;;16.53;48.14;100698.84;4963173;28;1356;-46
2022/12/07 12:26:29;;;;;;;;;;;;;;;16.42;47.38;100698.00;4979470;28;1969;-47
2022/12/07 12:28:58;;;;;;;;;;;;;;;17.31;48.69;100699.56;4997062;28;1133;-46
2022/12/07 12:31:27;;;;;;;;;;;;;;;16.57;49.02;100697.19;4996173;28;1859;-49
2022/12/07 12:33:52;;;;;;;;;;;;;;;16.33;48.05;100695.00;4996504;28;1191;-46
2022/12/07 12:36:19;;;;;;;;;;;;;;;16.52;48.06;100697.19;4996569;28;1129;-46
2022/12/07 12:38:49;;;;;;;;;;;;;;;16.90;48.86;100694.97;4989020;28;1093;-43
2022/12/07 12:41:33;;;;;;;;;;;;;;;16.43;48.48;100691.44;4990982;28;1149;-46
2022/12/07 12:43:58;;;;;;;;;;;;;;;17.06;48.85;100685.59;4984404;28;916;-46
2022/12/07 12:46:30;;;;;;;;;;;;;;;16.48;49.51;100685.09;4974371;28;1961;-45
2022/12/07 12:48:56;;;;;;;;;;;;;;;16.42;49.14;100687.88;4996474;28;1120;-48
2022/12/07 12:51:38;;;;;;;;;;;;;;;17.22;48.59;100696.53;4965756;28;1312;-43
2022/12/07 12:54:04;;;;;;;;;;;;;;;16.52;48.72;100686.19;4985293;28;1074;-47
2022/12/07 12:56:36;;;;;;;;;;;;;;;16.29;48.20;100688.41;4979200;28;1143;-46
2022/12/07 12:59:22;;;;;;;;;;;;;;;17.00;48.78;100692.22;4966017;28;1106;-47
2022/12/07 13:01:48;;;;;;;;;;;;;;;16.47;49.10;100691.72;4979116;28;2553;-47
2022/12/07 13:04:24;;;;;;;;;;;;;;;18.13;47.50;100697.22;4977966;28;1153;-46